Time;durP1;ratioP1;P1;durP2;ratioP2;P2;SDS_P1;SDS_P2;PMS_P1;PMS_P2;Temp;Humidity;BMP_temperature;BMP_pressure;BME280_temperature;BME280_humidity;BME280_pressure;Samples;Min_cycle;Max_cycle;Signal;HPM_P1;HPM_P2
2024/01/09 00:00:39;;;;;;;;;;;;;;;;;;4980819;28;19929;-75
2024/01/09 00:03:04;;;;;;;;;;;;;;;;;;4979906;28;19920;-77
2024/01/09 00:05:30;;;;;;;;;;;;;;;;;;4999067;28;19917;-76
2024/01/09 00:07:55;;;;;;;;;;;;;;;;;;4980110;28;20365;-76
2024/01/09 00:10:20;;;;;;;;;;;;;;;;;;4965380;28;20376;-77
2024/01/09 00:12:46;;;;;;;;;;;;;;;;;;4998608;28;20342;-76
2024/01/09 00:15:11;;;;;;;;;;;;;;;;;;4980422;28;19975;-75
2024/01/09 00:17:36;;;;;;;;;;;;;;;;;;4983919;28;19929;-74
2024/01/09 00:20:01;;;;;;;;;;;;;;;;;;4980483;28;19924;-76
2024/01/09 00:22:27;;;;;;;;;;;;;;;;;;4997881;28;20357;-76
2024/01/09 00:24:52;;;;;;;;;;;;;;;;;;4996762;28;20456;-74
2024/01/09 00:27:17;;;;;;;;;;;;;;;;;;4995652;28;20016;-77
2024/01/09 00:29:42;;;;;;;;;;;;;;;;;;4979599;28;19925;-75
2024/01/09 00:32:08;;;;;;;;;;;;;;;;;;4982190;28;19917;-75
2024/01/09 00:34:33;;;;;;;;;;;;;;;;;;4983284;28;20454;-75
2024/01/09 00:36:58;;;;;;;;;;;;;;;;;;4982486;28;19921;-75
2024/01/09 00:39:24;;;;;;;;;;;;;;;;;;4961518;28;19922;-75
2024/01/09 00:41:49;;;;;;;;;;;;;;;;;;4978572;28;19929;-76
2024/01/09 00:44:14;;;;;;;;;;;;;;;;;;4969328;28;19917;-76
2024/01/09 00:46:40;;;;;;;;;;;;;;;;;;4981680;28;19944;-75
2024/01/09 00:49:05;;;;;;;;;;;;;;;;;;4999329;28;20316;-75
2024/01/09 00:51:30;;;;;;;;;;;;;;;;;;4998037;28;19957;-76
2024/01/09 00:53:55;;;;;;;;;;;;;;;;;;5000447;28;19921;-75
2024/01/09 00:56:21;;;;;;;;;;;;;;;;;;4967382;28;19926;-76
2024/01/09 00:58:46;;;;;;;;;;;;;;;;;;4981357;28;20120;-76
2024/01/09 01:01:12;;;;;;;;;;;;;;;;;;4986233;28;20402;-76
2024/01/09 01:03:37;;;;;;;;;;;;;;;;;;4962906;28;19929;-76
2024/01/09 01:06:02;;;;;;;;;;;;;;;;;;4994492;28;20056;-77
2024/01/09 01:08:28;;;;;;;;;;;;;;;;;;4973205;28;19913;-77
2024/01/09 01:10:53;;;;;;;;;;;;;;;;;;4993401;28;19917;-77
2024/01/09 01:13:18;;;;;;;;;;;;;;;;;;4961017;28;19921;-77
2024/01/09 01:15:45;;;;;;;;;;;;;;;;;;4959527;28;20129;-76
2024/01/09 01:18:11;;;;;;;;;;;;;;;;;;4995662;28;19926;-77
2024/01/09 01:20:36;;;;;;;;;;;;;;;;;;4978324;28;19953;-74
2024/01/09 01:23:01;;;;;;;;;;;;;;;;;;5003998;28;20740;-79
2024/01/09 01:25:27;;;;;;;;;;;;;;;;;;4988513;28;19913;-77
2024/01/09 01:27:52;;;;;;;;;;;;;;;;;;4987977;28;19921;-77
2024/01/09 01:30:18;;;;;;;;;;;;;;;;;;4988226;28;19997;-77
2024/01/09 01:32:43;;;;;;;;;;;;;;;;;;5007178;28;19961;-77
2024/01/09 01:35:09;;;;;;;;;;;;;;;;;;4989071;28;19956;-78
2024/01/09 01:37:34;;;;;;;;;;;;;;;;;;4973011;28;19928;-78
2024/01/09 01:39:59;;;;;;;;;;;;;;;;;;4972605;28;19921;-77
2024/01/09 01:42:25;;;;;;;;;;;;;;;;;;4957567;28;20299;-77
2024/01/09 01:44:50;;;;;;;;;;;;;;;;;;4992056;28;20544;-77
2024/01/09 01:47:15;;;;;;;;;;;;;;;;;;4960174;28;19996;-77
2024/01/09 01:49:41;;;;;;;;;;;;;;;;;;4973899;28;19929;-76
2024/01/09 01:52:06;;;;;;;;;;;;;;;;;;4975780;28;20336;-78
2024/01/09 01:54:31;;;;;;;;;;;;;;;;;;4974728;28;19926;-78
2024/01/09 01:56:56;;;;;;;;;;;;;;;;;;4960945;28;19921;-78
2024/01/09 01:59:22;;;;;;;;;;;;;;;;;;4976077;28;19924;-77
2024/01/09 02:01:47;;;;;;;;;;;;;;;;;;4958539;28;19922;-78
2024/01/09 02:04:13;;;;;;;;;;;;;;;;;;4992913;28;20462;-78
2024/01/09 02:06:38;;;;;;;;;;;;;;;;;;4978580;28;19917;-77
2024/01/09 02:09:04;;;;;;;;;;;;;;;;;;4979371;28;20059;-75
2024/01/09 02:11:29;;;;;;;;;;;;;;;;;;4977023;28;20680;-78
2024/01/09 02:13:54;;;;;;;;;;;;;;;;;;4979116;28;20352;-78
2024/01/09 02:16:19;;;;;;;;;;;;;;;;;;4997126;28;19987;-77
2024/01/09 02:18:45;;;;;;;;;;;;;;;;;;4962643;28;20407;-77
2024/01/09 02:21:11;;;;;;;;;;;;;;;;;;4979430;28;20012;-77
2024/01/09 02:23:36;;;;;;;;;;;;;;;;;;4977553;28;20456;-76
2024/01/09 02:26:01;;;;;;;;;;;;;;;;;;4979339;28;19918;-78
2024/01/09 02:28:27;;;;;;;;;;;;;;;;;;4975882;28;19968;-77
2024/01/09 02:30:55;;;;;;;;;;;;;;;;;;4994582;28;19922;-77
2024/01/09 02:33:20;;;;;;;;;;;;;;;;;;4991742;28;19921;-76
2024/01/09 02:35:45;;;;;;;;;;;;;;;;;;4978824;28;20318;-77
2024/01/09 02:38:11;;;;;;;;;;;;;;;;;;4977853;28;20031;-77
2024/01/09 02:40:36;;;;;;;;;;;;;;;;;;4978425;28;19918;-78
2024/01/09 02:43:01;;;;;;;;;;;;;;;;;;4978388;28;19921;-78
2024/01/09 02:45:26;;;;;;;;;;;;;;;;;;4992653;28;19960;-77
2024/01/09 02:47:52;;;;;;;;;;;;;;;;;;4976085;28;21187;-77
2024/01/09 02:50:20;;;;;;;;;;;;;;;;;;4978339;28;19960;-75
2024/01/09 02:52:45;;;;;;;;;;;;;;;;;;4961282;28;20153;-77
2024/01/09 02:55:10;;;;;;;;;;;;;;;;;;4975786;28;19929;-77
2024/01/09 02:57:40;;;;;;;;;;;;;;;;;;4976303;28;19961;-78
2024/01/09 03:00:05;;;;;;;;;;;;;;;;;;4971628;28;20016;-76
2024/01/09 03:02:31;;;;;;;;;;;;;;;;;;4974544;28;19917;-77
2024/01/09 03:04:56;;;;;;;;;;;;;;;;;;4958499;28;20016;-78
2024/01/09 03:07:21;;;;;;;;;;;;;;;;;;4975526;28;20361;-77
2024/01/09 03:09:46;;;;;;;;;;;;;;;;;;4974313;28;20437;-77
2024/01/09 03:12:12;;;;;;;;;;;;;;;;;;4955826;28;20019;-78
2024/01/09 03:14:41;;;;;;;;;;;;;;;;;;4959087;28;19957;-78
2024/01/09 03:17:06;;;;;;;;;;;;;;;;;;4971907;28;19930;-78
2024/01/09 03:19:32;;;;;;;;;;;;;;;;;;4974373;28;19956;-77
2024/01/09 03:21:57;;;;;;;;;;;;;;;;;;4973253;28;19925;-76
2024/01/09 03:24:22;;;;;;;;;;;;;;;;;;4973253;28;20458;-76
2024/01/09 03:26:48;;;;;;;;;;;;;;;;;;4971076;28;19921;-76
2024/01/09 03:29:13;;;;;;;;;;;;;;;;;;4970900;28;20344;-78
2024/01/09 03:31:38;;;;;;;;;;;;;;;;;;4969029;28;19972;-74
2024/01/09 03:34:03;;;;;;;;;;;;;;;;;;4955130;28;20431;-77
2024/01/09 03:36:31;;;;;;;;;;;;;;;;;;4972564;28;20585;-77
2024/01/09 03:38:56;;;;;;;;;;;;;;;;;;4975962;28;19930;-77
2024/01/09 03:41:22;;;;;;;;;;;;;;;;;;4972406;28;19925;-77
2024/01/09 03:43:47;;;;;;;;;;;;;;;;;;4972373;28;20081;-77
2024/01/09 03:46:13;;;;;;;;;;;;;;;;;;4975812;28;20042;-78
2024/01/09 03:48:38;;;;;;;;;;;;;;;;;;4972409;28;19922;-78
2024/01/09 03:51:03;;;;;;;;;;;;;;;;;;4976428;28;20254;-75
2024/01/09 03:53:28;;;;;;;;;;;;;;;;;;4956837;28;20654;-75
2024/01/09 03:55:54;;;;;;;;;;;;;;;;;;4995703;28;19913;-76
2024/01/09 03:58:21;;;;;;;;;;;;;;;;;;4976942;28;19925;-77
2024/01/09 04:00:47;;;;;;;;;;;;;;;;;;4975750;28;20389;-77
2024/01/09 04:03:12;;;;;;;;;;;;;;;;;;4977054;28;19925;-76
2024/01/09 04:05:38;;;;;;;;;;;;;;;;;;4975669;28;19921;-77
2024/01/09 04:08:06;;;;;;;;;;;;;;;;;;4995703;28;19918;-75
2024/01/09 04:10:35;;;;;;;;;;;;;;;;;;4993067;28;19976;-76
2024/01/09 04:13:00;;;;;;;;;;;;;;;;;;4976453;28;20209;-77
2024/01/09 04:15:25;;;;;;;;;;;;;;;;;;4974925;28;20393;-76
2024/01/09 04:17:51;;;;;;;;;;;;;;;;;;4961042;28;20377;-76
2024/01/09 04:20:16;;;;;;;;;;;;;;;;;;4976475;28;19929;-74
2024/01/09 04:22:41;;;;;;;;;;;;;;;;;;4960763;28;19936;-77
2024/01/09 04:25:06;;;;;;;;;;;;;;;;;;4958793;28;20340;-77
2024/01/09 04:27:32;;;;;;;;;;;;;;;;;;4994119;28;19917;-77
2024/01/09 04:29:57;;;;;;;;;;;;;;;;;;4959490;28;19944;-76
2024/01/09 04:32:22;;;;;;;;;;;;;;;;;;4973339;28;19928;-75
2024/01/09 04:34:48;;;;;;;;;;;;;;;;;;4976862;28;20387;-78
2024/01/09 04:37:13;;;;;;;;;;;;;;;;;;4977533;28;19928;-78
2024/01/09 04:39:39;;;;;;;;;;;;;;;;;;4974294;28;22363;-78
2024/01/09 04:42:04;;;;;;;;;;;;;;;;;;4976255;28;19917;-73
2024/01/09 04:44:30;;;;;;;;;;;;;;;;;;4958233;28;20404;-76
2024/01/09 04:46:55;;;;;;;;;;;;;;;;;;4994238;28;20404;-77
2024/01/09 04:49:20;;;;;;;;;;;;;;;;;;4975079;28;20178;-76
2024/01/09 04:51:46;;;;;;;;;;;;;;;;;;4993913;28;20023;-76
2024/01/09 04:54:11;;;;;;;;;;;;;;;;;;4976067;28;19930;-77
2024/01/09 04:56:36;;;;;;;;;;;;;;;;;;4974838;28;20864;-77
2024/01/09 05:02:18;;;;;;;;;;;;;;;;;;4995020;28;19929;-77
2024/01/09 05:04:46;;;;;;;;;;;;;;;;;;4959644;28;19921;-76
2024/01/09 05:07:12;;;;;;;;;;;;;;;;;;4960124;28;20261;-75
2024/01/09 05:09:39;;;;;;;;;;;;;;;;;;4975410;28;19971;-77
2024/01/09 05:12:05;;;;;;;;;;;;;;;;;;4993429;28;19917;-75
2024/01/09 05:14:30;;;;;;;;;;;;;;;;;;4975887;28;20191;-76
2024/01/09 05:16:55;;;;;;;;;;;;;;;;;;4992976;28;19925;-76
2024/01/09 05:19:21;;;;;;;;;;;;;;;;;;4976903;28;20525;-77
2024/01/09 05:21:47;;;;;;;;;;;;;;;;;;4976368;28;20340;-76
2024/01/09 05:24:12;;;;;;;;;;;;;;;;;;4977770;28;19922;-78
2024/01/09 05:26:38;;;;;;;;;;;;;;;;;;4959106;28;19987;-77
2024/01/09 05:29:03;;;;;;;;;;;;;;;;;;4992897;28;20083;-78
2024/01/09 05:31:31;;;;;;;;;;;;;;;;;;4975087;28;19922;-75
2024/01/09 05:34:03;;;;;;;;;;;;;;;;;;4972333;28;20365;-77
2024/01/09 05:36:30;;;;;;;;;;;;;;;;;;4969481;28;19917;-76
2024/01/09 05:38:58;;;;;;;;;;;;;;;;;;4972602;28;19928;-75
2024/01/09 05:41:23;;;;;;;;;;;;;;;;;;4994536;28;20346;-78
2024/01/09 05:43:51;;;;;;;;;;;;;;;;;;4993033;28;19924;-76
2024/01/09 05:46:17;;;;;;;;;;;;;;;;;;4975961;28;19921;-77
2024/01/09 05:48:45;;;;;;;;;;;;;;;;;;4980098;28;19964;-77
2024/01/09 05:51:14;;;;;;;;;;;;;;;;;;4995427;28;19989;-77
2024/01/09 05:53:39;;;;;;;;;;;;;;;;;;4994875;28;20001;-77
2024/01/09 05:56:05;;;;;;;;;;;;;;;;;;4995024;28;19972;-79
2024/01/09 05:58:31;;;;;;;;;;;;;;;;;;4963494;28;19925;-77
2024/01/09 06:00:56;;;;;;;;;;;;;;;;;;4996624;28;19928;-76
2024/01/09 06:03:22;;;;;;;;;;;;;;;;;;4978018;28;19982;-75
2024/01/09 06:05:49;;;;;;;;;;;;;;;;;;4977823;28;20426;-76
2024/01/09 06:08:15;;;;;;;;;;;;;;;;;;4978498;28;19918;-77
2024/01/09 06:10:40;;;;;;;;;;;;;;;;;;4978720;28;19924;-78
2024/01/09 06:13:05;;;;;;;;;;;;;;;;;;4977836;28;19931;-76
2024/01/09 06:15:30;;;;;;;;;;;;;;;;;;4993326;28;19918;-77
2024/01/09 06:17:56;;;;;;;;;;;;;;;;;;4976233;28;20001;-77
2024/01/09 06:20:26;;;;;;;;;;;;;;;;;;4977492;28;19922;-76
2024/01/09 06:22:55;;;;;;;;;;;;;;;;;;4978402;28;19921;-78
2024/01/09 06:25:20;;;;;;;;;;;;;;;;;;4961781;28;19918;-78
2024/01/09 06:27:45;;;;;;;;;;;;;;;;;;4976273;28;20494;-73
2024/01/09 06:30:11;;;;;;;;;;;;;;;;;;4993363;28;20284;-77
2024/01/09 06:32:39;;;;;;;;;;;;;;;;;;4961203;28;19948;-78
2024/01/09 06:35:04;;;;;;;;;;;;;;;;;;4975265;28;20016;-78
2024/01/09 06:37:32;;;;;;;;;;;;;;;;;;4961765;28;20016;-76
2024/01/09 06:39:57;;;;;;;;;;;;;;;;;;4993336;28;20280;-79
2024/01/09 06:42:22;;;;;;;;;;;;;;;;;;4992208;28;19976;-76
2024/01/09 06:44:49;;;;;;;;;;;;;;;;;;4976316;28;19964;-76
2024/01/09 06:47:14;;;;;;;;;;;;;;;;;;4977446;28;19918;-75
2024/01/09 06:49:39;;;;;;;;;;;;;;;;;;4995262;28;20318;-77
2024/01/09 06:52:05;;;;;;;;;;;;;;;;;;4954612;28;20052;-76
2024/01/09 06:54:32;;;;;;;;;;;;;;;;;;4994018;28;19929;-76
2024/01/09 06:56:57;;;;;;;;;;;;;;;;;;4977458;28;19925;-76
2024/01/09 06:59:22;;;;;;;;;;;;;;;;;;4972285;28;19925;-78
2024/01/09 07:01:51;;;;;;;;;;;;;;;;;;4969962;28;20432;-77
2024/01/09 07:04:16;;;;;;;;;;;;;;;;;;4974574;28;19921;-76
2024/01/09 07:06:44;;;;;;;;;;;;;;;;;;4971420;28;19922;-72
2024/01/09 07:09:12;;;;;;;;;;;;;;;;;;4977486;28;19929;-74
2024/01/09 07:11:40;;;;;;;;;;;;;;;;;;4975636;28;19917;-73
2024/01/09 07:14:11;;;;;;;;;;;;;;;;;;4992728;28;19960;-73
2024/01/09 07:16:37;;;;;;;;;;;;;;;;;;4959709;28;20423;-73
2024/01/09 07:19:03;;;;;;;;;;;;;;;;;;4994655;28;20010;-73
2024/01/09 07:21:30;;;;;;;;;;;;;;;;;;4993652;28;19928;-73
2024/01/09 07:24:01;;;;;;;;;;;;;;;;;;4960744;28;19917;-72
2024/01/09 07:26:26;;;;;;;;;;;;;;;;;;4960201;28;19921;-70
2024/01/09 07:28:55;;;;;;;;;;;;;;;;;;4993839;28;19921;-72
2024/01/09 07:31:20;;;;;;;;;;;;;;;;;;4976707;28;19952;-70
2024/01/09 07:33:45;;;;;;;;;;;;;;;;;;4976033;28;19928;-69
2024/01/09 07:36:11;;;;;;;;;;;;;;;;;;4991910;28;20285;-71
2024/01/09 07:38:36;;;;;;;;;;;;;;;;;;4995629;28;19929;-70
2024/01/09 07:41:02;;;;;;;;;;;;;;;;;;4977245;28;20211;-71
2024/01/09 07:43:27;;;;;;;;;;;;;;;;;;4958886;28;20004;-71
2024/01/09 07:45:52;;;;;;;;;;;;;;;;;;4976380;28;20554;-70
2024/01/09 07:48:18;;;;;;;;;;;;;;;;;;4959372;28;20523;-71
2024/01/09 07:50:46;;;;;;;;;;;;;;;;;;4974585;28;19957;-70
2024/01/09 07:53:27;;;;;;;;;;;;;;;;;;4960071;28;19948;-73
2024/01/09 07:55:55;;;;;;;;;;;;;;;;;;4994024;28;20305;-70
2024/01/09 07:58:24;;;;;;;;;;;;;;;;;;4977024;28;20088;-73
2024/01/09 08:00:53;;;;;;;;;;;;;;;;;;4993954;28;19928;-73
2024/01/09 08:03:21;;;;;;;;;;;;;;;;;;4959384;28;20337;-70
2024/01/09 08:05:47;;;;;;;;;;;;;;;;;;4990968;28;20052;-73
2024/01/09 08:08:12;;;;;;;;;;;;;;;;;;4974536;28;20004;-73
2024/01/09 08:10:37;;;;;;;;;;;;;;;;;;4976586;28;20012;-72
2024/01/09 08:13:02;;;;;;;;;;;;;;;;;;4976650;28;19922;-70
2024/01/09 08:15:30;;;;;;;;;;;;;;;;;;4975421;28;19922;-72
2024/01/09 08:17:56;;;;;;;;;;;;;;;;;;4960493;28;19928;-72
2024/01/09 08:20:24;;;;;;;;;;;;;;;;;;4976764;28;19944;-70
2024/01/09 08:22:49;;;;;;;;;;;;;;;;;;4975434;28;19925;-73
2024/01/09 08:25:14;;;;;;;;;;;;;;;;;;4958619;28;20248;-72
2024/01/09 08:27:39;;;;;;;;;;;;;;;;;;4993108;28;19922;-72
2024/01/09 08:30:10;;;;;;;;;;;;;;;;;;4993487;28;19926;-70
2024/01/09 08:35:54;;;;;;;;;;;;;;;;;;4991357;28;19943;-72
2024/01/09 08:38:19;;;;;;;;;;;;;;;;;;4973794;28;20889;-73
2024/01/09 08:40:53;;;;;;;;;;;;;;;;;;4975985;28;20490;-70
2024/01/09 08:43:18;;;;;;;;;;;;;;;;;;4971772;28;20153;-73
2024/01/09 08:45:43;;;;;;;;;;;;;;;;;;4960148;28;20388;-73
2024/01/09 08:48:09;;;;;;;;;;;;;;;;;;4992475;28;20373;-73
2024/01/09 08:50:36;;;;;;;;;;;;;;;;;;4974526;28;19918;-71
2024/01/09 08:53:05;;;;;;;;;;;;;;;;;;4975246;28;19965;-72
2024/01/09 08:55:33;;;;;;;;;;;;;;;;;;4957631;28;20398;-73
2024/01/09 08:57:59;;;;;;;;;;;;;;;;;;4975301;28;20296;-70
2024/01/09 09:00:27;;;;;;;;;;;;;;;;;;4958350;28;19918;-72
2024/01/09 09:02:52;;;;;;;;;;;;;;;;;;4973242;28;19957;-72
2024/01/09 09:05:20;;;;;;;;;;;;;;;;;;4954626;28;20017;-73
2024/01/09 09:11:04;;;;;;;;;;;;;;;;;;4990379;28;19928;-74
2024/01/09 09:13:30;;;;;;;;;;;;;;;;;;4974423;28;19918;-70
2024/01/09 09:15:55;;;;;;;;;;;;;;;;;;4958373;28;19913;-72
2024/01/09 09:18:23;;;;;;;;;;;;;;;;;;4990986;28;21794;-73
2024/01/09 09:20:48;;;;;;;;;;;;;;;;;;4973936;28;19921;-73
2024/01/09 09:23:17;;;;;;;;;;;;;;;;;;4974347;28;19917;-71
2024/01/09 09:25:42;;;;;;;;;;;;;;;;;;4959175;28;19976;-73
2024/01/09 09:28:10;;;;;;;;;;;;;;;;;;4958482;28;19928;-71
2024/01/09 09:30:35;;;;;;;;;;;;;;;;;;4975248;28;19971;-72
2024/01/09 09:33:00;;;;;;;;;;;;;;;;;;4973710;28;19917;-72
2024/01/09 09:35:26;;;;;;;;;;;;;;;;;;4959364;28;19917;-72
2024/01/09 09:37:51;;;;;;;;;;;;;;;;;;4955886;28;20852;-72
2024/01/09 09:40:16;;;;;;;;;;;;;;;;;;4992390;28;20752;-73
2024/01/09 09:42:42;;;;;;;;;;;;;;;;;;4973905;28;20627;-73
2024/01/09 09:45:07;;;;;;;;;;;;;;;;;;4971792;28;20212;-70
2024/01/09 09:47:35;;;;;;;;;;;;;;;;;;4974763;28;19929;-73
2024/01/09 09:50:03;;;;;;;;;;;;;;;;;;4973024;28;20043;-72
2024/01/09 09:52:29;;;;;;;;;;;;;;;;;;4958680;28;20515;-74
2024/01/09 09:54:56;;;;;;;;;;;;;;;;;;4972453;28;19983;-74
2024/01/09 09:57:24;;;;;;;;;;;;;;;;;;4992799;28;19937;-72
2024/01/09 09:59:55;;;;;;;;;;;;;;;;;;4972219;28;20016;-73
2024/01/09 10:05:38;;;;;;;;;;;;;;;;;;4990355;28;20404;-74
2024/01/09 10:08:03;;;;;;;;;;;;;;;;;;4992122;28;19952;-73
2024/01/09 10:10:28;;;;;;;;;;;;;;;;;;4990085;28;19921;-71
2024/01/09 10:12:57;;;;;;;;;;;;;;;;;;4975396;28;19949;-72
2024/01/09 10:15:22;;;;;;;;;;;;;;;;;;4956636;28;19925;-72
2024/01/09 10:17:48;;;;;;;;;;;;;;;;;;4974885;28;20012;-75
2024/01/09 10:20:13;;;;;;;;;;;;;;;;;;4993171;28;19949;-74
2024/01/09 10:22:39;;;;;;;;;;;;;;;;;;4990309;28;20003;-75
2024/01/09 10:25:07;;;;;;;;;;;;;;;;;;4958760;28;19917;-72
2024/01/09 10:27:32;;;;;;;;;;;;;;;;;;4995387;28;20531;-75
2024/01/09 10:29:57;;;;;;;;;;;;;;;;;;4962425;28;20060;-75
2024/01/09 10:32:23;;;;;;;;;;;;;;;;;;4997258;28;19953;-74
2024/01/09 10:34:49;;;;;;;;;;;;;;;;;;4979165;28;19960;-75
2024/01/09 10:37:14;;;;;;;;;;;;;;;;;;4979158;28;20025;-75
2024/01/09 10:39:39;;;;;;;;;;;;;;;;;;4961215;28;19956;-72
2024/01/09 10:42:07;;;;;;;;;;;;;;;;;;4996314;28;19921;-73
2024/01/09 10:44:35;;;;;;;;;;;;;;;;;;4978932;28;19944;-75
2024/01/09 10:47:00;;;;;;;;;;;;;;;;;;4962640;28;20365;-75
2024/01/09 10:49:26;;;;;;;;;;;;;;;;;;4963560;28;20004;-71
2024/01/09 10:51:54;;;;;;;;;;;;;;;;;;4996091;28;19929;-75
2024/01/09 10:54:22;;;;;;;;;;;;;;;;;;4978408;28;19940;-75
2024/01/09 10:56:50;;;;;;;;;;;;;;;;;;4996442;28;19932;-76
2024/01/09 10:59:15;;;;;;;;;;;;;;;;;;4962470;28;19948;-74
2024/01/09 11:01:41;;;;;;;;;;;;;;;;;;4963172;28;20333;-77
2024/01/09 11:04:06;;;;;;;;;;;;;;;;;;4996921;28;20012;-73
2024/01/09 11:06:31;;;;;;;;;;;;;;;;;;4977999;28;20657;-75
2024/01/09 11:08:58;;;;;;;;;;;;;;;;;;4976949;28;20329;-72
2024/01/09 11:11:23;;;;;;;;;;;;;;;;;;4959693;28;19928;-72
2024/01/09 11:13:51;;;;;;;;;;;;;;;;;;4976346;28;19921;-75
2024/01/09 11:16:19;;;;;;;;;;;;;;;;;;4994652;28;20421;-74
2024/01/09 11:18:46;;;;;;;;;;;;;;;;;;4991924;28;19926;-74
2024/01/09 11:21:13;;;;;;;;;;;;;;;;;;4976005;28;19922;-76
2024/01/09 11:23:45;;;;;;;;;;;;;;;;;;4977337;28;20040;-75
2024/01/09 11:26:13;;;;;;;;;;;;;;;;;;4974903;28;19927;-77
2024/01/09 11:28:38;;;;;;;;;;;;;;;;;;4974486;28;19917;-76
2024/01/09 11:31:06;;;;;;;;;;;;;;;;;;4975833;28;19997;-77
2024/01/09 11:33:31;;;;;;;;;;;;;;;;;;4961123;28;19975;-77
2024/01/09 11:36:00;;;;;;;;;;;;;;;;;;4975468;28;20000;-78
2024/01/09 11:38:25;;;;;;;;;;;;;;;;;;4991348;28;19925;-77
2024/01/09 11:40:50;;;;;;;;;;;;;;;;;;4975743;28;19925;-78
2024/01/09 11:43:17;;;;;;;;;;;;;;;;;;4991685;28;20324;-77
2024/01/09 11:45:42;;;;;;;;;;;;;;;;;;4994837;28;19922;-76
2024/01/09 11:48:08;;;;;;;;;;;;;;;;;;4994223;28;19917;-74
2024/01/09 11:50:33;;;;;;;;;;;;;;;;;;4992015;28;20011;-77
2024/01/09 11:52:58;;;;;;;;;;;;;;;;;;4960008;28;20520;-77
2024/01/09 11:55:24;;;;;;;;;;;;;;;;;;4992541;28;20326;-78
2024/01/09 11:57:49;;;;;;;;;;;;;;;;;;4975794;28;20696;-75
2024/01/09 12:00:15;;;;;;;;;;;;;;;;;;4992274;28;19975;-77
2024/01/09 12:02:45;;;;;;;;;;;;;;;;;;4976366;28;20407;-78
2024/01/09 12:05:13;;;;;;;;;;;;;;;;;;4976806;28;19917;-78
2024/01/09 12:07:40;;;;;;;;;;;;;;;;;;4974159;28;20004;-78
2024/01/09 12:10:05;;;;;;;;;;;;;;;;;;4976618;28;19924;-77
2024/01/09 12:12:31;;;;;;;;;;;;;;;;;;4973784;28;19917;-76
2024/01/09 12:14:56;;;;;;;;;;;;;;;;;;4976879;28;19917;-77
2024/01/09 12:17:27;;;;;;;;;;;;;;;;;;4975491;28;19926;-75
2024/01/09 12:19:52;;;;;;;;;;;;;;;;;;4989603;28;20007;-77
2024/01/09 12:22:18;;;;;;;;;;;;;;;;;;4976776;28;19922;-75
2024/01/09 12:24:43;;;;;;;;;;;;;;;;;;4975961;28;20019;-78
2024/01/09 12:27:08;;;;;;;;;;;;;;;;;;4976432;28;20308;-76
2024/01/09 12:29:34;;;;;;;;;;;;;;;;;;4974713;28;20285;-76
2024/01/09 12:31:59;;;;;;;;;;;;;;;;;;4994435;28;19914;-78
2024/01/09 12:34:24;;;;;;;;;;;;;;;;;;4975979;28;19929;-76
2024/01/09 12:36:53;;;;;;;;;;;;;;;;;;4976859;28;19933;-78
2024/01/09 12:39:19;;;;;;;;;;;;;;;;;;4991631;28;20448;-78
2024/01/09 12:41:47;;;;;;;;;;;;;;;;;;4993927;28;20009;-77
2024/01/09 12:44:15;;;;;;;;;;;;;;;;;;4974981;28;19917;-75
2024/01/09 12:46:40;;;;;;;;;;;;;;;;;;4975912;28;19925;-74
2024/01/09 12:49:08;;;;;;;;;;;;;;;;;;4973256;28;20017;-77
2024/01/09 12:51:33;;;;;;;;;;;;;;;;;;4992147;28;19918;-76
2024/01/09 12:53:59;;;;;;;;;;;;;;;;;;4993195;28;20418;-76
2024/01/09 12:59:44;;;;;;;;;;;;;;;;;;4992277;28;20020;-76
2024/01/09 13:02:12;;;;;;;;;;;;;;;;;;4976125;28;20742;-78
2024/01/09 13:04:37;;;;;;;;;;;;;;;;;;4974897;28;20943;-79
2024/01/09 13:07:03;;;;;;;;;;;;;;;;;;4967010;28;20032;-73
2024/01/09 13:09:33;;;;;;;;;;;;;;;;;;4955304;28;19963;-71
2024/01/09 13:12:03;;;;;;;;;;;;;;;;;;4993869;28;20016;-74
2024/01/09 13:14:31;;;;;;;;;;;;;;;;;;4973768;28;20306;-73
2024/01/09 13:16:57;;;;;;;;;;;;;;;;;;4973730;28;19933;-73
2024/01/09 13:19:23;;;;;;;;;;;;;;;;;;4970913;28;20356;-71
2024/01/09 13:21:50;;;;;;;;;;;;;;;;;;4989451;28;20385;-70
2024/01/09 13:24:16;;;;;;;;;;;;;;;;;;4951608;28;19925;-70
2024/01/09 13:26:42;;;;;;;;;;;;;;;;;;4985802;28;19921;-72
2024/01/09 13:29:07;;;;;;;;;;;;;;;;;;4988504;28;19960;-70
2024/01/09 13:31:33;;;;;;;;;;;;;;;;;;4970086;28;19928;-72
2024/01/09 13:34:05;;;;;;;;;;;;;;;;;;4956267;28;19928;-71
2024/01/09 13:36:31;;;;;;;;;;;;;;;;;;4973115;28;19918;-74
2024/01/09 13:38:59;;;;;;;;;;;;;;;;;;4970994;28;20069;-74
2024/01/09 13:41:24;;;;;;;;;;;;;;;;;;4970838;28;19952;-73
2024/01/09 13:43:50;;;;;;;;;;;;;;;;;;4974704;28;20012;-71
2024/01/09 13:46:16;;;;;;;;;;;;;;;;;;4956046;28;20411;-70
2024/01/09 13:48:42;;;;;;;;;;;;;;;;;;4965509;28;20001;-72
2024/01/09 13:51:07;;;;;;;;;;;;;;;;;;4988943;28;19917;-72
2024/01/09 13:53:35;;;;;;;;;;;;;;;;;;4971449;28;19924;-72
2024/01/09 13:56:03;;;;;;;;;;;;;;;;;;4990628;28;19930;-74
2024/01/09 13:58:29;;;;;;;;;;;;;;;;;;4955433;28;20550;-72
2024/01/09 14:00:54;;;;;;;;;;;;;;;;;;4993615;28;20008;-73
2024/01/09 14:03:21;;;;;;;;;;;;;;;;;;4972125;28;19922;-74
2024/01/09 14:05:47;;;;;;;;;;;;;;;;;;4976476;28;19921;-74
2024/01/09 14:08:12;;;;;;;;;;;;;;;;;;4976680;28;19976;-72
2024/01/09 14:10:37;;;;;;;;;;;;;;;;;;4975284;28;19924;-72
2024/01/09 14:13:03;;;;;;;;;;;;;;;;;;4959747;28;20343;-73
2024/01/09 14:15:29;;;;;;;;;;;;;;;;;;4990057;28;19921;-75
2024/01/09 14:17:54;;;;;;;;;;;;;;;;;;4973881;28;19921;-71
2024/01/09 14:20:24;;;;;;;;;;;;;;;;;;4992878;28;19921;-70
2024/01/09 14:22:49;;;;;;;;;;;;;;;;;;4974697;28;20439;-73
2024/01/09 14:25:15;;;;;;;;;;;;;;;;;;4960236;28;20731;-73
2024/01/09 14:27:40;;;;;;;;;;;;;;;;;;4992808;28;20457;-73
2024/01/09 14:30:06;;;;;;;;;;;;;;;;;;4961157;28;19922;-72
2024/01/09 14:32:32;;;;;;;;;;;;;;;;;;4975579;28;19922;-70
2024/01/09 14:34:57;;;;;;;;;;;;;;;;;;4993231;28;20223;-73
2024/01/09 14:37:23;;;;;;;;;;;;;;;;;;4973413;28;20309;-72
2024/01/09 14:39:51;;;;;;;;;;;;;;;;;;4974644;28;19928;-72
2024/01/09 14:42:17;;;;;;;;;;;;;;;;;;4989575;28;20202;-74
2024/01/09 14:44:43;;;;;;;;;;;;;;;;;;4992314;28;19928;-74
2024/01/09 14:47:10;;;;;;;;;;;;;;;;;;4993698;28;20039;-74
2024/01/09 14:49:35;;;;;;;;;;;;;;;;;;4956918;28;20846;-73
2024/01/09 14:52:01;;;;;;;;;;;;;;;;;;4975383;28;19917;-72
2024/01/09 14:54:27;;;;;;;;;;;;;;;;;;4993381;28;19933;-72
2024/01/09 14:56:53;;;;;;;;;;;;;;;;;;4976576;28;19925;-73
2024/01/09 14:59:18;;;;;;;;;;;;;;;;;;4975479;28;20434;-71
2024/01/09 15:01:44;;;;;;;;;;;;;;;;;;4993678;28;20623;-71
2024/01/09 15:04:09;;;;;;;;;;;;;;;;;;4977102;28;20016;-71
2024/01/09 15:06:34;;;;;;;;;;;;;;;;;;4993554;28;19925;-70
2024/01/09 15:08:59;;;;;;;;;;;;;;;;;;4974322;28;19921;-70
2024/01/09 15:11:25;;;;;;;;;;;;;;;;;;4957800;28;20365;-70
2024/01/09 15:13:50;;;;;;;;;;;;;;;;;;4974093;28;19922;-71
2024/01/09 15:16:15;;;;;;;;;;;;;;;;;;4992018;28;19948;-71
2024/01/09 15:18:41;;;;;;;;;;;;;;;;;;4971880;28;19955;-70
2024/01/09 15:21:08;;;;;;;;;;;;;;;;;;4957797;28;20028;-70
2024/01/09 15:23:37;;;;;;;;;;;;;;;;;;4970166;28;20408;-71
2024/01/09 15:26:05;;;;;;;;;;;;;;;;;;4987103;28;19988;-71
2024/01/09 15:28:30;;;;;;;;;;;;;;;;;;4960641;28;20527;-70
2024/01/09 15:30:55;;;;;;;;;;;;;;;;;;4973355;28;20474;-69
2024/01/09 15:33:21;;;;;;;;;;;;;;;;;;4959833;28;20267;-71
2024/01/09 15:35:46;;;;;;;;;;;;;;;;;;4974416;28;20233;-69
2024/01/09 15:38:11;;;;;;;;;;;;;;;;;;4958877;28;20020;-70
2024/01/09 15:40:39;;;;;;;;;;;;;;;;;;4989061;28;19928;-70
2024/01/09 15:43:07;;;;;;;;;;;;;;;;;;4989388;28;19917;-70
2024/01/09 15:45:33;;;;;;;;;;;;;;;;;;4991884;28;20277;-70
2024/01/09 15:48:00;;;;;;;;;;;;;;;;;;4992037;28;19917;-70
2024/01/09 15:50:29;;;;;;;;;;;;;;;;;;4957863;28;20429;-70
2024/01/09 15:52:57;;;;;;;;;;;;;;;;;;4973625;28;20004;-69
2024/01/09 15:55:27;;;;;;;;;;;;;;;;;;4971775;28;19926;-70
2024/01/09 15:57:55;;;;;;;;;;;;;;;;;;4973298;28;20055;-70
2024/01/09 16:00:23;;;;;;;;;;;;;;;;;;4958549;28;19918;-70
2024/01/09 16:02:51;;;;;;;;;;;;;;;;;;4973516;28;20395;-72
2024/01/09 16:05:16;;;;;;;;;;;;;;;;;;4974531;28;19929;-72
2024/01/09 16:07:42;;;;;;;;;;;;;;;;;;4973629;28;19918;-69
2024/01/09 16:10:10;;;;;;;;;;;;;;;;;;4992551;28;19917;-69
2024/01/09 16:12:41;;;;;;;;;;;;;;;;;;4955974;28;20004;-70
2024/01/09 16:15:09;;;;;;;;;;;;;;;;;;4972898;28;19968;-70
2024/01/09 16:17:34;;;;;;;;;;;;;;;;;;4988796;28;19921;-70
2024/01/09 16:20:03;;;;;;;;;;;;;;;;;;4956306;28;19949;-70
2024/01/09 16:22:31;;;;;;;;;;;;;;;;;;4974411;28;19917;-72
2024/01/09 16:24:56;;;;;;;;;;;;;;;;;;4972916;28;19917;-71
2024/01/09 16:27:23;;;;;;;;;;;;;;;;;;4970726;28;20198;-71
2024/01/09 16:29:48;;;;;;;;;;;;;;;;;;4969498;28;20039;-70
2024/01/09 16:32:13;;;;;;;;;;;;;;;;;;4991283;28;20387;-71
2024/01/09 16:34:41;;;;;;;;;;;;;;;;;;4971209;28;20474;-71
2024/01/09 16:37:09;;;;;;;;;;;;;;;;;;4956935;28;19993;-72
2024/01/09 16:39:36;;;;;;;;;;;;;;;;;;4957291;28;20214;-71
2024/01/09 16:42:01;;;;;;;;;;;;;;;;;;4992243;28;19925;-72
2024/01/09 16:44:26;;;;;;;;;;;;;;;;;;4972359;28;20456;-71
2024/01/09 16:46:54;;;;;;;;;;;;;;;;;;4990457;28;19921;-71
2024/01/09 16:49:22;;;;;;;;;;;;;;;;;;4992224;28;20364;-71
2024/01/09 16:51:47;;;;;;;;;;;;;;;;;;4990902;28;19917;-72
2024/01/09 16:54:12;;;;;;;;;;;;;;;;;;4990742;28;20400;-70